Time;durP1;ratioP1;P1;durP2;ratioP2;P2;SDS_P1;SDS_P2;PMS_P1;PMS_P2;Temp;Humidity;BMP_temperature;BMP_pressure;BME280_temperature;BME280_humidity;BME280_pressure;Samples;Min_cycle;Max_cycle;Signal;HPM_P1;HPM_P2
2023/01/27 00:00:53;;;;;;;7.68;4.32;;;4.00;99.90;;;;;;5034831;28;20037;-66
2023/01/27 00:03:19;;;;;;;10.50;3.25;;;4.00;99.90;;;;;;5034440;28;20041;-66
2023/01/27 00:05:45;;;;;;;9.13;3.53;;;4.00;99.90;;;;;;5034766;28;20112;-66
2023/01/27 00:08:11;;;;;;;5.88;3.75;;;4.00;99.90;;;;;;5016959;28;20102;-66
2023/01/27 00:10:37;;;;;;;7.70;3.67;;;4.00;99.90;;;;;;5034003;28;20045;-66
2023/01/27 00:15:46;;;;;;;6.45;3.13;;;3.90;99.90;;;;;;5034539;28;20049;-65
2023/01/27 00:18:12;;;;;;;5.97;3.47;;;3.90;99.90;;;;;;5000487;28;20450;-65
2023/01/27 00:26:14;;;;;;;6.15;3.15;;;3.90;99.90;;;;;;5034043;28;20077;-66
2023/01/27 00:28:42;;;;;;;4.60;2.47;;;3.90;99.90;;;;;;5033937;28;20068;-66
2023/01/27 00:33:56;;;;;;;5.50;2.70;;;3.90;99.90;;;;;;5016193;28;20049;-65
2023/01/27 00:36:22;;;;;;;9.15;2.90;;;3.90;99.90;;;;;;5033824;28;20117;-66
2023/01/27 00:38:47;;;;;;;4.82;3.03;;;3.90;99.90;;;;;;4999853;28;20080;-65
2023/01/27 00:41:20;;;;;;;9.13;2.53;;;3.90;99.90;;;;;;5034077;28;20485;-66
2023/01/27 00:43:46;;;;;;;4.75;2.60;;;3.90;99.90;;;;;;5033759;28;20041;-65
2023/01/27 00:46:13;;;;;;;3.92;2.42;;;3.90;99.90;;;;;;5016300;28;20042;-66
2023/01/27 00:48:39;;;;;;;5.78;2.45;;;3.90;99.90;;;;;;5015832;28;20416;-65
2023/01/27 00:51:04;;;;;;;4.60;2.20;;;3.90;99.90;;;;;;5033909;28;20044;-65
2023/01/27 00:53:30;;;;;;;6.78;2.85;;;3.90;99.90;;;;;;5033812;28;20469;-66
2023/01/27 00:55:59;;;;;;;6.03;2.38;;;3.90;99.90;;;;;;5033700;28;20481;-65
2023/01/27 00:58:26;;;;;;;4.25;2.40;;;3.90;99.90;;;;;;5033530;28;20103;-66
2023/01/27 01:00:53;;;;;;;5.78;2.83;;;3.90;99.90;;;;;;4999366;28;20132;-66
2023/01/27 01:03:19;;;;;;;7.90;2.67;;;3.90;99.90;;;;;;5033626;28;20038;-65
2023/01/27 01:05:44;;;;;;;5.22;2.58;;;3.90;99.90;;;;;;5033612;28;20037;-66
2023/01/27 01:08:10;;;;;;;3.88;2.03;;;3.90;99.90;;;;;;5033464;28;20038;-66
2023/01/27 01:10:38;;;;;;;5.28;1.80;;;3.90;99.90;;;;;;5033554;28;20033;-65
2023/01/27 01:13:06;;;;;;;4.35;2.30;;;3.90;99.90;;;;;;5015297;28;20409;-65
2023/01/27 01:15:36;;;;;;;3.60;1.92;;;3.90;99.90;;;;;;5015797;28;20049;-66
2023/01/27 01:18:03;;;;;;;4.65;2.15;;;3.90;99.90;;;;;;5033432;28;20037;-66
2023/01/27 01:20:29;;;;;;;5.22;2.47;;;3.90;99.90;;;;;;5033086;28;20117;-66
2023/01/27 01:22:56;;;;;;;4.13;2.35;;;3.90;99.90;;;;;;5032602;28;20474;-65
2023/01/27 01:25:21;;;;;;;8.57;2.92;;;3.90;99.90;;;;;;5033251;28;20489;-66
2023/01/27 01:27:47;;;;;;;4.65;2.55;;;3.90;99.90;;;;;;5032878;28;20076;-65
2023/01/27 01:30:13;;;;;;;6.07;3.10;;;3.90;99.90;;;;;;5015593;28;20038;-65
2023/01/27 01:32:38;;;;;;;5.50;3.10;;;3.90;99.90;;;;;;5015195;28;20463;-65
2023/01/27 01:35:04;;;;;;;5.90;2.75;;;3.90;99.90;;;;;;5032816;28;20069;-66
2023/01/27 01:37:30;;;;;;;4.40;2.85;;;3.90;99.90;;;;;;5033133;28;20069;-65
2023/01/27 01:39:55;;;;;;;4.95;3.15;;;3.90;99.90;;;;;;5015416;28;20096;-65
2023/01/27 01:42:21;;;;;;;3.35;2.50;;;3.90;99.90;;;;;;5033111;28;20034;-66
2023/01/27 01:44:46;;;;;;;4.70;2.63;;;3.90;99.90;;;;;;5033044;28;20179;-65
2023/01/27 01:47:18;;;;;;;4.22;2.55;;;3.90;99.90;;;;;;5032903;28;20045;-65
2023/01/27 01:49:46;;;;;;;3.58;2.17;;;3.90;99.90;;;;;;5032866;28;20041;-66
2023/01/27 01:52:22;;;;;;;6.60;2.20;;;3.90;99.90;;;;;;5032955;28;20033;-65
2023/01/27 01:54:52;;;;;;;4.85;1.90;;;3.90;99.90;;;;;;5015208;28;20041;-66
2023/01/27 01:57:26;;;;;;;3.28;1.77;;;3.90;99.90;;;;;;5032842;28;20041;-66
2023/01/27 01:59:57;;;;;;;4.95;1.98;;;3.90;99.90;;;;;;5014874;28;20045;-66
2023/01/27 02:02:24;;;;;;;3.67;1.70;;;4.50;99.90;;;;;;5032890;28;20052;-66
2023/01/27 02:05:01;;;;;;;2.35;1.42;;;3.90;99.90;;;;;;5032865;28;20037;-65
2023/01/27 02:07:30;;;;;;;3.92;1.60;;;3.90;99.90;;;;;;5032861;28;20429;-66
2023/01/27 02:09:57;;;;;;;2.78;1.63;;;3.90;99.90;;;;;;5014763;28;20419;-65
2023/01/27 02:12:22;;;;;;;4.43;1.60;;;3.90;99.90;;;;;;5032550;28;20084;-66
2023/01/27 02:14:48;;;;;;;3.30;1.85;;;3.90;99.90;;;;;;5032761;28;20602;-66
2023/01/27 02:17:14;;;;;;;2.72;1.30;;;3.90;99.90;;;;;;5032428;28;20064;-65
2023/01/27 02:19:54;;;;;;;2.33;1.35;;;3.90;99.90;;;;;;5032729;28;20095;-66
2023/01/27 02:22:32;;;;;;;7.57;1.65;;;4.00;99.90;;;;;;5032668;28;20059;-65
2023/01/27 02:25:08;;;;;;;3.50;1.20;;;3.90;99.90;;;;;;5032392;28;20080;-65
2023/01/27 02:27:33;;;;;;;3.45;1.27;;;4.00;99.90;;;;;;5032624;28;20038;-65
2023/01/27 02:29:59;;;;;;;2.15;1.08;;;4.00;99.90;;;;;;5032488;28;20044;-65
2023/01/27 02:32:25;;;;;;;2.13;1.10;;;4.00;99.90;;;;;;5032340;28;20037;-65
2023/01/27 02:34:52;;;;;;;2.70;1.08;;;4.00;99.90;;;;;;5034967;28;20397;-65
2023/01/27 02:37:19;;;;;;;1.83;1.10;;;4.00;99.90;;;;;;5036460;28;20532;-65
2023/01/27 02:39:48;;;;;;;1.20;0.90;;;4.00;99.90;;;;;;5036341;28;20413;-65
2023/01/27 02:42:15;;;;;;;1.08;0.82;;;4.00;99.90;;;;;;5035991;28;20426;-66
2023/01/27 02:44:41;;;;;;;2.83;1.08;;;4.00;99.90;;;;;;5036252;28;20045;-65
2023/01/27 02:47:07;;;;;;;4.57;0.95;;;4.10;99.90;;;;;;5036165;28;20469;-65
2023/01/27 02:49:32;;;;;;;1.35;0.80;;;4.00;99.90;;;;;;5036160;28;20134;-65
2023/01/27 02:51:58;;;;;;;1.73;1.15;;;4.00;99.90;;;;;;5036153;28;20040;-65
2023/01/27 02:54:25;;;;;;;2.75;1.05;;;4.10;99.90;;;;;;5018077;28;20042;-66
2023/01/27 02:56:51;;;;;;;1.40;0.85;;;4.10;99.90;;;;;;5035757;28;20029;-66
2023/01/27 02:59:17;;;;;;;1.80;1.20;;;4.00;99.90;;;;;;5036023;28;20053;-66
2023/01/27 03:01:42;;;;;;;1.95;0.80;;;4.00;99.90;;;;;;5018155;28;20040;-66
2023/01/27 03:04:10;;;;;;;1.20;0.63;;;4.00;99.90;;;;;;5035921;28;20044;-65
2023/01/27 03:06:37;;;;;;;3.15;1.15;;;4.00;99.90;;;;;;5018179;28;20489;-65
2023/01/27 03:09:05;;;;;;;0.95;0.45;;;4.00;99.90;;;;;;5018065;28;20045;-65
2023/01/27 03:14:15;;;;;;;1.52;1.00;;;4.00;99.90;;;;;;5017648;28;20059;-65
2023/01/27 03:19:28;;;;;;;1.83;1.00;;;4.00;99.90;;;;;;5035659;28;20049;-65
2023/01/27 03:21:55;;;;;;;1.65;1.00;;;4.00;99.90;;;;;;5035594;28;20041;-65
2023/01/27 03:24:21;;;;;;;2.35;0.80;;;4.00;99.90;;;;;;5035225;28;20412;-65
2023/01/27 03:26:47;;;;;;;1.25;0.82;;;4.00;99.90;;;;;;5035322;28;20465;-66
2023/01/27 03:31:57;;;;;;;3.42;0.90;;;4.00;99.90;;;;;;5035078;28;20046;-66
2023/01/27 03:34:22;;;;;;;2.55;1.13;;;4.00;99.90;;;;;;5035245;28;20092;-65
2023/01/27 03:47:45;;;;;;;1.15;0.82;;;4.00;99.90;;;;;;5035081;28;20037;-65
2023/01/27 03:50:12;;;;;;;1.70;0.98;;;4.00;99.90;;;;;;5034616;28;20068;-66
2023/01/27 03:52:39;;;;;;;1.33;0.73;;;4.00;99.90;;;;;;5035002;28;20092;-67
2023/01/27 03:55:05;;;;;;;1.27;0.68;;;4.00;99.90;;;;;;5034923;28;20436;-65
2023/01/27 03:57:31;;;;;;;2.53;0.90;;;4.00;99.90;;;;;;5034917;28;20485;-65
2023/01/27 03:59:57;;;;;;;2.30;1.17;;;4.00;99.90;;;;;;5034896;28;20118;-65
2023/01/27 04:07:51;;;;;;;2.03;0.80;;;3.90;99.90;;;;;;5034755;28;20049;-65
2023/01/27 04:10:17;;;;;;;1.02;0.60;;;3.90;99.90;;;;;;5034572;28;20052;-65
2023/01/27 04:12:42;;;;;;;4.55;1.10;;;3.90;99.90;;;;;;5034292;28;20443;-66
2023/01/27 04:15:08;;;;;;;1.00;0.80;;;3.90;99.90;;;;;;5034635;28;20452;-66
2023/01/27 04:17:37;;;;;;;2.72;1.25;;;3.90;99.90;;;;;;5016631;28;20034;-65
2023/01/27 04:20:04;;;;;;;1.10;0.70;;;3.90;99.90;;;;;;5034247;28;20076;-65
2023/01/27 04:22:30;;;;;;;1.45;0.98;;;3.90;99.90;;;;;;5016399;28;20048;-65
2023/01/27 04:24:55;;;;;;;2.30;0.90;;;3.80;99.90;;;;;;5016431;28;20045;-65
2023/01/27 04:27:21;;;;;;;1.30;0.80;;;3.80;99.90;;;;;;5034399;28;20477;-65
2023/01/27 04:29:46;;;;;;;1.15;0.68;;;3.80;99.90;;;;;;5016539;28;20103;-66
2023/01/27 04:32:12;;;;;;;1.08;0.70;;;3.80;99.90;;;;;;5034278;28;20037;-66
2023/01/27 04:34:39;;;;;;;4.80;0.98;;;3.80;99.90;;;;;;5033911;28;20065;-66
2023/01/27 04:37:07;;;;;;;1.27;1.13;;;3.80;99.90;;;;;;5033866;28;20072;-64
2023/01/27 04:39:33;;;;;;;1.42;1.00;;;3.80;99.90;;;;;;5034133;28;20045;-65
2023/01/27 04:41:58;;;;;;;2.03;0.90;;;3.80;99.90;;;;;;5033996;28;20037;-66
2023/01/27 04:44:24;;;;;;;2.05;1.23;;;3.80;99.90;;;;;;5033925;28;20052;-65
2023/01/27 04:46:50;;;;;;;2.97;1.10;;;3.80;99.90;;;;;;5033755;28;20034;-65
2023/01/27 04:49:16;;;;;;;1.55;1.00;;;3.80;99.90;;;;;;5016262;28;20352;-66
2023/01/27 04:51:42;;;;;;;1.38;0.80;;;3.80;99.90;;;;;;5033612;28;20072;-65
2023/01/27 04:54:08;;;;;;;1.02;0.85;;;4.60;99.90;;;;;;5033769;28;20041;-65
2023/01/27 04:56:40;;;;;;;1.23;0.88;;;3.80;99.90;;;;;;5033571;28;20041;-65
2023/01/27 04:59:11;;;;;;;3.30;1.27;;;3.80;99.90;;;;;;5033080;28;20037;-65
2023/01/27 05:01:37;;;;;;;1.42;0.73;;;3.80;99.90;;;;;;5033428;28;20095;-65
2023/01/27 05:04:03;;;;;;;2.60;0.93;;;3.80;99.90;;;;;;5033414;28;20037;-66
2023/01/27 05:06:28;;;;;;;1.95;0.75;;;3.80;99.90;;;;;;5033350;28;20037;-65
2023/01/27 05:08:54;;;;;;;1.10;0.90;;;3.80;99.90;;;;;;5033388;28;20052;-65
2023/01/27 05:11:20;;;;;;;1.17;0.77;;;3.80;99.90;;;;;;5033420;28;20136;-65
2023/01/27 05:13:45;;;;;;;0.88;0.70;;;3.80;99.90;;;;;;5033480;28;20052;-65
2023/01/27 05:16:14;;;;;;;3.47;0.80;;;3.70;99.90;;;;;;5015582;28;20037;-65
2023/01/27 05:18:41;;;;;;;1.40;0.70;;;3.70;99.90;;;;;;5033408;28;20091;-67
2023/01/27 05:21:10;;;;;;;1.27;0.88;;;3.70;99.90;;;;;;5015423;28;20471;-66
2023/01/27 05:23:36;;;;;;;1.80;0.90;;;3.70;99.90;;;;;;5033316;28;20179;-65
2023/01/27 05:26:04;;;;;;;1.10;0.93;;;3.70;99.90;;;;;;5033318;28;20072;-64
2023/01/27 05:28:29;;;;;;;4.15;1.00;;;3.70;99.90;;;;;;5015476;28;20864;-64
2023/01/27 05:31:08;;;;;;;2.65;1.00;;;3.70;99.90;;;;;;5015263;28;20077;-65
2023/01/27 05:33:34;;;;;;;1.05;0.68;;;3.70;99.90;;;;;;5033344;28;20118;-65
2023/01/27 05:36:01;;;;;;;1.00;0.82;;;3.70;99.90;;;;;;5033116;28;20075;-66
2023/01/27 05:38:28;;;;;;;3.90;0.80;;;3.70;99.90;;;;;;5015443;28;20409;-65
2023/01/27 05:40:55;;;;;;;2.28;0.88;;;3.70;99.90;;;;;;5032993;28;20038;-66
2023/01/27 05:43:21;;;;;;;2.38;1.23;;;3.70;99.90;;;;;;5032796;28;20508;-66
2023/01/27 05:45:46;;;;;;;1.35;0.93;;;3.70;99.90;;;;;;5033091;28;20037;-67
2023/01/27 05:48:12;;;;;;;1.83;1.00;;;3.70;99.90;;;;;;5032644;28;20041;-67
2023/01/27 05:50:38;;;;;;;0.88;0.70;;;3.70;99.90;;;;;;5032943;28;20116;-68
2023/01/27 05:53:03;;;;;;;1.05;0.80;;;3.70;99.90;;;;;;5032901;28;20042;-66
2023/01/27 05:55:29;;;;;;;1.02;0.85;;;3.70;99.90;;;;;;5033004;28;20488;-66
2023/01/27 05:57:54;;;;;;;2.63;1.00;;;3.70;99.90;;;;;;5032643;28;20042;-66
2023/01/27 06:00:20;;;;;;;1.85;0.90;;;3.60;99.90;;;;;;5032928;28;20073;-66
2023/01/27 06:02:46;;;;;;;2.25;0.90;;;3.60;99.90;;;;;;5032886;28;20046;-65
2023/01/27 06:05:11;;;;;;;1.60;1.02;;;3.60;99.90;;;;;;5032790;28;20034;-65
2023/01/27 06:07:37;;;;;;;2.13;0.88;;;3.60;99.90;;;;;;5014814;28;20037;-66
2023/01/27 06:10:03;;;;;;;1.80;1.00;;;3.60;99.90;;;;;;5017725;28;20546;-66
2023/01/27 06:12:28;;;;;;;1.23;0.80;;;3.60;99.90;;;;;;5036538;28;20058;-66
2023/01/27 06:14:56;;;;;;;2.58;0.90;;;3.60;99.90;;;;;;5036915;28;20179;-64
2023/01/27 06:17:22;;;;;;;1.52;0.90;;;3.60;99.90;;;;;;5036912;28;20040;-64
2023/01/27 06:19:47;;;;;;;0.70;0.65;;;3.60;99.90;;;;;;5036829;28;20038;-64
2023/01/27 06:22:13;;;;;;;2.53;0.90;;;3.60;99.90;;;;;;5036796;28;20607;-64
2023/01/27 06:24:39;;;;;;;1.30;0.77;;;3.60;99.90;;;;;;5036655;28;20037;-64
2023/01/27 06:27:04;;;;;;;1.02;0.80;;;3.60;99.90;;;;;;5036630;28;20043;-65
2023/01/27 06:29:30;;;;;;;2.25;0.80;;;3.60;99.90;;;;;;5036642;28;20056;-65
2023/01/27 06:31:55;;;;;;;0.73;0.63;;;3.60;99.90;;;;;;5036605;28;20519;-66
2023/01/27 06:34:21;;;;;;;1.95;0.70;;;3.60;99.90;;;;;;5018691;28;20049;-65
2023/01/27 06:36:47;;;;;;;2.10;1.20;;;3.60;99.90;;;;;;5036183;28;20052;-64
2023/01/27 06:39:13;;;;;;;0.70;0.70;;;3.60;99.90;;;;;;5036394;28;20420;-64
2023/01/27 06:41:38;;;;;;;1.35;0.80;;;3.60;99.90;;;;;;5018383;28;20128;-65
2023/01/27 06:44:04;;;;;;;1.02;0.77;;;3.60;99.90;;;;;;5036377;28;20460;-65
2023/01/27 06:46:29;;;;;;;1.75;1.15;;;3.60;99.90;;;;;;5036281;28;20034;-64
2023/01/27 06:48:55;;;;;;;1.98;0.75;;;3.60;99.90;;;;;;5036160;28;20048;-66
2023/01/27 06:51:21;;;;;;;1.10;0.75;;;4.50;99.90;;;;;;5036248;28;20037;-65
2023/01/27 06:53:46;;;;;;;2.47;0.90;;;3.60;99.90;;;;;;5036211;28;20067;-65
2023/01/27 06:56:12;;;;;;;1.23;0.80;;;3.60;99.90;;;;;;5018271;28;20041;-65
2023/01/27 06:58:37;;;;;;;1.50;1.13;;;3.60;99.90;;;;;;5036066;28;20045;-67
2023/01/27 07:01:05;;;;;;;1.38;0.75;;;3.60;99.90;;;;;;5035710;28;20044;-67
2023/01/27 07:03:30;;;;;;;1.65;0.88;;;3.60;99.90;;;;;;5018259;28;20168;-66
2023/01/27 07:05:56;;;;;;;1.20;0.93;;;3.60;99.90;;;;;;5035955;28;20120;-65
2023/01/27 07:08:22;;;;;;;3.60;0.93;;;3.60;99.90;;;;;;5035722;28;20033;-65
2023/01/27 07:10:47;;;;;;;3.03;0.63;;;3.60;99.90;;;;;;5035827;28;20499;-65
2023/01/27 07:13:13;;;;;;;1.13;0.57;;;3.60;99.90;;;;;;5035304;28;20101;-65
2023/01/27 07:15:39;;;;;;;1.52;1.27;;;3.60;99.90;;;;;;5035389;28;20038;-65
2023/01/27 07:18:05;;;;;;;1.60;0.93;;;3.60;99.90;;;;;;5035720;28;20033;-65
2023/01/27 07:20:31;;;;;;;1.02;0.88;;;3.60;99.90;;;;;;5034419;28;20044;-66
2023/01/27 07:23:02;;;;;;;1.75;0.68;;;3.60;99.90;;;;;;5035510;28;20116;-64
2023/01/27 07:25:29;;;;;;;3.53;0.90;;;3.60;99.90;;;;;;5035470;28;20072;-65
2023/01/27 07:27:59;;;;;;;1.15;0.60;;;3.60;99.90;;;;;;5017391;28;20041;-65
2023/01/27 07:30:26;;;;;;;1.98;0.80;;;3.60;99.90;;;;;;5000957;28;20046;-64
2023/01/27 07:32:53;;;;;;;2.65;0.80;;;3.60;99.90;;;;;;5035169;28;20120;-65
2023/01/27 07:35:19;;;;;;;3.40;0.70;;;3.60;99.90;;;;;;5035336;28;20039;-65
2023/01/27 07:37:45;;;;;;;0.95;0.65;;;3.60;99.90;;;;;;5035240;28;20041;-65
2023/01/27 07:40:12;;;;;;;2.10;0.85;;;3.60;99.90;;;;;;5017086;28;20091;-66
2023/01/27 07:42:38;;;;;;;1.85;1.05;;;3.60;99.90;;;;;;5035279;28;20045;-66
2023/01/27 07:45:04;;;;;;;1.00;0.80;;;3.60;99.90;;;;;;5034907;28;20046;-65
2023/01/27 07:47:29;;;;;;;0.82;0.70;;;3.60;99.90;;;;;;5035156;28;20033;-66
2023/01/27 07:49:55;;;;;;;1.98;1.10;;;3.60;99.90;;;;;;5035045;28;20118;-65
2023/01/27 07:52:21;;;;;;;5.35;0.98;;;3.60;99.90;;;;;;5035065;28;20042;-66
2023/01/27 07:54:46;;;;;;;0.90;0.73;;;3.60;99.90;;;;;;5034770;28;20139;-65
2023/01/27 07:57:12;;;;;;;1.95;1.08;;;3.60;99.90;;;;;;5034972;28;20065;-65
2023/01/27 07:59:37;;;;;;;2.22;0.90;;;3.60;99.90;;;;;;5034964;28;20037;-65
2023/01/27 08:02:03;;;;;;;1.08;0.70;;;3.60;99.90;;;;;;5034967;28;20540;-65
2023/01/27 08:04:28;;;;;;;0.93;0.75;;;3.60;99.90;;;;;;5017102;28;20045;-66
2023/01/27 08:06:54;;;;;;;2.75;0.98;;;3.60;99.90;;;;;;5034745;28;20077;-66
2023/01/27 08:09:20;;;;;;;2.13;0.98;;;3.60;99.90;;;;;;5016713;28;20045;-66
2023/01/27 08:11:45;;;;;;;5.18;1.00;;;3.70;99.90;;;;;;5034487;28;20454;-66
2023/01/27 08:14:11;;;;;;;3.50;1.38;;;3.70;99.90;;;;;;5034661;28;20048;-66
2023/01/27 08:16:36;;;;;;;3.85;1.20;;;3.70;99.90;;;;;;5034448;28;20041;-65
2023/01/27 08:19:02;;;;;;;2.80;1.00;;;3.70;99.90;;;;;;5016572;28;20041;-65
2023/01/27 08:21:31;;;;;;;1.73;1.00;;;3.70;99.90;;;;;;5034523;28;20112;-64
2023/01/27 08:23:58;;;;;;;1.92;0.88;;;3.70;99.90;;;;;;5034131;28;20045;-66
2023/01/27 08:26:25;;;;;;;1.60;0.98;;;3.70;99.90;;;;;;5016531;28;20071;-66
2023/01/27 08:28:51;;;;;;;1.27;0.85;;;3.70;99.90;;;;;;5034133;28;20037;-66
2023/01/27 08:31:17;;;;;;;2.33;1.00;;;3.80;99.90;;;;;;5034177;28;20128;-66
2023/01/27 08:33:48;;;;;;;1.67;1.13;;;3.80;99.90;;;;;;5034016;28;20087;-65
2023/01/27 08:36:16;;;;;;;1.65;1.10;;;3.80;99.90;;;;;;5033992;28;20045;-66
2023/01/27 08:38:43;;;;;;;3.58;1.55;;;3.80;99.90;;;;;;5034234;28;20170;-65
2023/01/27 08:41:13;;;;;;;1.35;1.05;;;3.80;99.90;;;;;;5034216;28;20467;-66
2023/01/27 08:43:39;;;;;;;2.33;1.30;;;3.80;99.90;;;;;;5034173;28;20045;-65
2023/01/27 08:46:05;;;;;;;1.95;0.95;;;3.80;99.90;;;;;;5033862;28;20033;-65
2023/01/27 08:48:32;;;;;;;3.95;1.13;;;3.90;99.90;;;;;;5033912;28;20051;-66
2023/01/27 08:50:58;;;;;;;6.63;1.40;;;3.90;99.90;;;;;;5033979;28;20378;-66
2023/01/27 08:53:25;;;;;;;4.15;0.90;;;3.90;99.90;;;;;;5033974;28;20041;-66
2023/01/27 08:55:53;;;;;;;0.90;0.77;;;4.00;99.90;;;;;;5033936;28;20532;-66
2023/01/27 08:58:20;;;;;;;1.95;1.13;;;4.00;99.90;;;;;;5033854;28;20092;-66
2023/01/27 09:00:46;;;;;;;5.57;1.45;;;4.00;99.90;;;;;;5033757;28;20041;-65
2023/01/27 09:03:12;;;;;;;3.00;1.00;;;4.00;99.90;;;;;;5033740;28;20026;-66
2023/01/27 09:05:38;;;;;;;3.25;1.55;;;4.10;99.90;;;;;;5015892;28;20041;-65
2023/01/27 09:08:04;;;;;;;2.67;1.30;;;4.10;99.90;;;;;;5033610;28;20034;-66
2023/01/27 09:10:30;;;;;;;2.10;1.17;;;4.10;99.90;;;;;;5033351;28;20059;-66
2023/01/27 09:12:56;;;;;;;4.18;1.30;;;4.10;99.90;;;;;;5015344;28;20604;-66
2023/01/27 09:15:22;;;;;;;2.40;1.00;;;4.20;99.90;;;;;;5033403;28;20063;-65
2023/01/27 09:17:48;;;;;;;1.98;1.25;;;4.30;99.90;;;;;;5033490;28;20069;-66
2023/01/27 09:20:13;;;;;;;1.75;1.20;;;4.30;99.90;;;;;;5033143;28;20081;-66
2023/01/27 09:22:40;;;;;;;3.42;1.42;;;4.30;99.90;;;;;;5033433;28;20139;-65
2023/01/27 09:25:08;;;;;;;1.92;1.27;;;4.30;99.90;;;;;;5033301;28;20370;-66
2023/01/27 09:27:33;;;;;;;2.63;1.40;;;4.40;99.90;;;;;;5033366;28;20124;-66
2023/01/27 09:29:59;;;;;;;3.33;1.38;;;4.40;99.90;;;;;;5033241;28;20120;-66
2023/01/27 09:32:24;;;;;;;2.25;1.35;;;4.50;99.90;;;;;;5033293;28;20481;-66
2023/01/27 09:34:50;;;;;;;4.15;1.05;;;4.50;99.90;;;;;;5033254;28;20122;-66
2023/01/27 09:37:16;;;;;;;1.58;1.13;;;4.60;99.90;;;;;;5015628;28;20191;-66
2023/01/27 09:39:47;;;;;;;2.40;1.27;;;4.60;99.90;;;;;;5033219;28;20106;-65
2023/01/27 09:42:39;;;;;;;2.72;1.27;;;4.60;99.90;;;;;;5033079;28;20072;-65
2023/01/27 09:45:12;;;;;;;1.70;1.15;;;4.60;99.90;;;;;;4998568;28;20053;-66
2023/01/27 09:48:04;;;;;;;3.28;1.30;;;4.70;99.90;;;;;;5033120;28;20068;-66
2023/01/27 09:50:56;;;;;;;2.00;1.00;;;4.70;99.90;;;;;;5001936;28;20183;-66
2023/01/27 09:53:43;;;;;;;3.85;1.23;;;4.70;99.90;;;;;;5033026;28;20370;-66
2023/01/27 09:56:13;;;;;;;3.30;1.42;;;4.70;99.90;;;;;;5032964;28;20041;-65
2023/01/27 09:59:03;;;;;;;2.65;1.20;;;4.70;99.90;;;;;;5032985;28;20092;-65
2023/01/27 10:02:25;;;;;;;1.58;1.13;;;4.70;99.90;;;;;;5032971;28;20041;-66
2023/01/27 10:05:19;;;;;;;1.55;0.90;;;4.70;99.90;;;;;;4971692;28;20043;-66
2023/01/27 10:07:48;;;;;;;2.10;1.27;;;4.70;99.90;;;;;;5032902;28;20041;-66
2023/01/27 10:10:19;;;;;;;1.67;1.10;;;4.70;99.90;;;;;;5032752;28;20077;-66
2023/01/27 10:13:08;;;;;;;3.22;1.25;;;4.60;99.90;;;;;;5032477;28;20053;-65
2023/01/27 10:15:49;;;;;;;1.15;0.88;;;4.60;99.90;;;;;;5032758;28;20044;-65
2023/01/27 10:18:48;;;;;;;1.83;0.70;;;4.60;99.90;;;;;;5032764;28;20392;-65
2023/01/27 10:21:13;;;;;;;3.45;0.98;;;4.60;99.90;;;;;;5032472;28;20487;-66
2023/01/27 10:24:15;;;;;;;1.13;0.82;;;4.60;99.90;;;;;;5032675;28;20041;-66
2023/01/27 10:26:47;;;;;;;2.15;1.10;;;4.60;99.90;;;;;;5032718;28;20077;-65
2023/01/27 10:29:37;;;;;;;1.50;0.95;;;4.70;99.90;;;;;;5032583;28;20041;-65
2023/01/27 10:32:28;;;;;;;0.82;0.52;;;4.70;99.90;;;;;;5021535;28;20143;-65
2023/01/27 10:35:11;;;;;;;1.52;0.85;;;4.60;99.90;;;;;;5014955;28;20037;-66
2023/01/27 10:38:01;;;;;;;2.42;1.00;;;4.70;99.90;;;;;;5032612;28;20052;-66
2023/01/27 10:41:01;;;;;;;2.13;0.80;;;4.70;99.90;;;;;;5032596;28;20416;-66
2023/01/27 10:43:59;;;;;;;1.80;1.02;;;4.60;99.90;;;;;;5000018;28;20045;-65
2023/01/27 10:46:41;;;;;;;2.25;0.98;;;4.70;99.90;;;;;;5032160;28;20052;-65
2023/01/27 10:49:22;;;;;;;1.27;0.82;;;4.60;99.90;;;;;;5032387;28;20398;-65
2023/01/27 10:52:17;;;;;;;1.27;0.85;;;4.60;99.90;;;;;;5014793;28;20095;-66
2023/01/27 10:55:04;;;;;;;1.58;0.80;;;4.50;99.90;;;;;;5026867;28;20448;-66
2023/01/27 10:57:40;;;;;;;2.45;0.93;;;4.60;99.90;;;;;;5036142;28;20072;-66
2023/01/27 11:00:25;;;;;;;2.40;0.80;;;4.50;99.90;;;;;;5036110;28;20489;-66
2023/01/27 11:02:57;;;;;;;1.65;0.73;;;4.50;99.90;;;;;;5035803;28;20046;-66
2023/01/27 11:05:32;;;;;;;1.05;0.80;;;4.50;99.90;;;;;;5018027;28;20080;-66
2023/01/27 11:08:19;;;;;;;0.77;0.60;;;4.50;99.90;;;;;;5017933;28;20103;-66
2023/01/27 11:13:37;;;;;;;;;;;4.50;99.90;;;;;;5036276;28;20053;-66
2023/01/27 11:16:04;;;;;;;2.25;1.25;;;4.50;99.90;;;;;;5017881;28;19924;-66
2023/01/27 11:18:33;;;;;;;2.28;1.02;;;4.50;99.90;;;;;;5017749;28;20053;-66
2023/01/27 11:21:04;;;;;;;1.10;0.80;;;4.50;99.90;;;;;;5035722;28;20441;-66
2023/01/27 11:23:37;;;;;;;1.00;0.77;;;4.50;99.90;;;;;;5035362;28;20045;-66
2023/01/27 11:26:16;;;;;;;1.73;0.95;;;4.40;99.90;;;;;;5035295;28;20080;-66
2023/01/27 11:29:01;;;;;;;2.03;1.10;;;4.40;99.90;;;;;;5035328;28;20048;-66
2023/01/27 11:31:37;;;;;;;1.48;1.00;;;4.50;99.90;;;;;;5035535;28;20053;-66
2023/01/27 11:34:25;;;;;;;2.50;1.30;;;4.40;99.90;;;;;;5035486;28;20091;-66
2023/01/27 11:36:51;;;;;;;1.20;0.93;;;4.40;99.90;;;;;;5035422;28;20041;-66
2023/01/27 11:39:17;;;;;;;1.67;0.85;;;4.40;99.90;;;;;;5017286;28;20050;-66
2023/01/27 11:41:56;;;;;;;0.98;0.80;;;4.40;99.90;;;;;;5035285;28;20459;-67
2023/01/27 11:44:32;;;;;;;1.10;0.80;;;4.40;99.90;;;;;;5035279;28;20033;-66
2023/01/27 11:46:58;;;;;;;2.13;1.20;;;4.50;99.90;;;;;;5034955;28;20152;-65
2023/01/27 11:49:29;;;;;;;0.85;0.75;;;4.50;99.90;;;;;;5035005;28;20092;-66
2023/01/27 11:52:04;;;;;;;;;;;4.50;99.90;;;;;;5035532;28;20092;-66
2023/01/27 11:54:38;;;;;;;1.70;1.00;;;4.50;99.90;;;;;;5034910;28;20388;-66
2023/01/27 11:57:03;;;;;;;1.50;0.95;;;4.50;99.90;;;;;;5016928;28;20092;-66
2023/01/27 11:59:34;;;;;;;1.52;0.90;;;4.50;99.90;;;;;;5017032;28;20428;-66
2023/01/27 12:02:18;;;;;;;1.77;1.10;;;4.50;99.90;;;;;;5017066;28;20045;-67
2023/01/27 12:04:57;;;;;;;1.50;1.00;;;4.60;99.90;;;;;;5034679;28;20171;-66
2023/01/27 12:07:29;;;;;;;2.65;1.20;;;4.50;99.90;;;;;;5016566;28;20041;-66
2023/01/27 12:09:54;;;;;;;0.77;0.68;;;4.60;99.90;;;;;;5034685;28;20049;-66
2023/01/27 12:12:25;;;;;;;1.17;0.90;;;4.50;99.90;;;;;;5034341;28;20133;-66
2023/01/27 12:14:53;;;;;;;7.18;1.25;;;4.50;99.90;;;;;;5034664;28;20041;-66
2023/01/27 12:17:40;;;;;;;0.80;0.70;;;4.50;99.90;;;;;;5034615;28;20041;-66
2023/01/27 12:20:18;;;;;;;1.38;0.90;;;4.60;99.90;;;;;;5016438;28;20081;-66
2023/01/27 12:22:48;;;;;;;1.17;0.80;;;4.50;99.90;;;;;;5034503;28;20456;-66
2023/01/27 12:25:21;;;;;;;2.17;0.60;;;4.60;99.90;;;;;;5034438;28;20377;-65
2023/01/27 12:27:51;;;;;;;0.65;0.60;;;4.60;99.90;;;;;;5016645;28;20049;-65
2023/01/27 12:30:33;;;;;;;1.63;0.80;;;4.60;99.90;;;;;;5033919;28;20041;-64
2023/01/27 12:33:09;;;;;;;0.80;0.70;;;4.60;99.90;;;;;;5016551;28;20037;-66
2023/01/27 12:35:36;;;;;;;0.40;0.35;;;4.60;99.90;;;;;;5034283;28;20048;-65
2023/01/27 12:38:23;;;;;;;0.73;0.50;;;4.70;99.90;;;;;;5034322;28;20034;-66
2023/01/27 12:40:59;;;;;;;0.70;0.60;;;4.70;99.90;;;;;;5034075;28;20037;-65
2023/01/27 12:43:25;;;;;;;0.65;0.47;;;4.70;99.90;;;;;;5016375;28;20513;-66
2023/01/27 12:46:09;;;;;;;1.38;0.80;;;4.70;99.90;;;;;;5034072;28;20045;-65
2023/01/27 12:48:48;;;;;;;0.55;0.55;;;4.70;99.90;;;;;;5033935;28;20049;-64
2023/01/27 12:51:18;;;;;;;0.75;0.60;;;4.70;99.90;;;;;;5033751;28;20085;-66
2023/01/27 12:53:43;;;;;;;0.68;0.60;;;4.70;99.90;;;;;;5033557;28;20038;-66
2023/01/27 12:56:11;;;;;;;0.35;0.35;;;4.70;99.90;;;;;;5033870;28;20041;-66
2023/01/27 12:58:55;;;;;;;1.63;0.40;;;4.70;99.90;;;;;;5015879;28;20124;-65
2023/01/27 13:01:32;;;;;;;0.38;0.38;;;4.70;99.90;;;;;;5033863;28;20401;-66
2023/01/27 13:04:17;;;;;;;1.63;0.52;;;4.70;99.90;;;;;;5033422;28;20034;-66
2023/01/27 13:07:00;;;;;;;1.15;0.70;;;4.60;99.90;;;;;;5033700;28;20428;-66
2023/01/27 13:09:45;;;;;;;0.55;0.55;;;4.70;99.90;;;;;;5015738;28;20114;-66
2023/01/27 13:12:28;;;;;;;0.77;0.52;;;4.60;99.90;;;;;;5015521;28;20076;-66
2023/01/27 13:15:05;;;;;;;1.08;0.80;;;4.60;99.90;;;;;;5033507;28;20045;-65
2023/01/27 13:17:37;;;;;;;1.48;0.80;;;4.70;99.90;;;;;;5033413;28;20043;-66
2023/01/27 13:20:33;;;;;;;0.60;0.60;;;4.70;99.90;;;;;;5014705;28;20091;-66
2023/01/27 13:23:26;;;;;;;1.75;0.77;;;4.60;99.90;;;;;;5033425;28;20095;-65
2023/01/27 13:26:10;;;;;;;1.02;0.60;;;4.70;99.90;;;;;;5033471;28;20048;-66
2023/01/27 13:28:56;;;;;;;0.95;0.60;;;4.70;99.90;;;;;;5033311;28;20044;-66
2023/01/27 13:31:41;;;;;;;0.82;0.68;;;4.70;99.90;;;;;;4999006;28;20103;-66
2023/01/27 13:34:44;;;;;;;0.95;0.70;;;4.60;99.90;;;;;;5032952;28;20079;-67
2023/01/27 13:37:19;;;;;;;0.98;0.43;;;4.70;99.90;;;;;;5033214;28;20042;-66
2023/01/27 13:40:21;;;;;;;2.00;0.88;;;4.70;99.90;;;;;;5015161;28;20408;-66
2023/01/27 13:43:12;;;;;;;1.85;0.85;;;4.60;99.90;;;;;;5032909;28;20045;-66
2023/01/27 13:45:46;;;;;;;2.00;1.15;;;4.60;99.90;;;;;;5033125;28;20392;-65
2023/01/27 13:48:45;;;;;;;1.17;0.90;;;4.60;99.90;;;;;;5033093;28;20034;-67
2023/01/27 13:51:16;;;;;;;3.00;1.77;;;4.60;99.90;;;;;;5021542;28;20050;-66
2023/01/27 13:53:45;;;;;;;5.68;1.80;;;4.50;99.90;;;;;;5032728;28;20073;-67